createdAt,value
2022-10-17T00:02:10.299Z,100.00
2022-10-17T00:04:37.009Z,100.00
2022-10-17T00:07:03.701Z,100.00
2022-10-17T00:09:30.442Z,100.00
2022-10-17T00:11:57.125Z,100.00
2022-10-17T00:14:23.745Z,100.00
2022-10-17T00:16:50.367Z,100.00
2022-10-17T00:19:17.025Z,100.00
2022-10-17T00:21:43.673Z,100.00
2022-10-17T00:24:10.312Z,100.00
2022-10-17T00:26:36.962Z,100.00
2022-10-17T00:29:03.710Z,100.00
2022-10-17T00:31:30.652Z,100.00
2022-10-17T00:33:57.322Z,100.00
2022-10-17T00:36:26.544Z,100.00
2022-10-17T00:38:58.992Z,100.00
2022-10-17T00:41:30.150Z,100.00
2022-10-17T00:44:02.844Z,100.00
2022-10-17T00:46:35.523Z,100.00
2022-10-17T00:49:08.366Z,100.00
2022-10-17T00:51:42.614Z,100.00
2022-10-17T00:54:11.403Z,100.00
2022-10-17T00:56:40.412Z,100.00
2022-10-17T00:59:12.322Z,100.00
2022-10-17T01:01:47.121Z,100.00
2022-10-17T01:04:13.882Z,100.00
2022-10-17T01:06:40.446Z,100.00
2022-10-17T01:09:07.040Z,100.00
2022-10-17T01:11:56.982Z,100.00
2022-10-17T01:14:37.910Z,100.00
2022-10-17T01:17:11.487Z,100.00
2022-10-17T01:20:07.430Z,100.00
2022-10-17T01:23:04.463Z,100.00
2022-10-17T01:25:52.513Z,100.00
2022-10-17T01:28:37.476Z,100.00
2022-10-17T01:31:16.382Z,100.00
2022-10-17T01:33:45.985Z,100.00
2022-10-17T01:36:21.387Z,100.00
2022-10-17T01:38:58.989Z,100.00
2022-10-17T01:41:42.432Z,100.00
2022-10-17T01:44:18.139Z,100.00
2022-10-17T01:46:50.477Z,100.00
2022-10-17T01:49:21.837Z,100.00
2022-10-17T01:51:54.389Z,100.00
2022-10-17T01:54:36.737Z,100.00
2022-10-17T01:57:08.631Z,100.00
2022-10-17T01:59:41.004Z,100.00
2022-10-17T02:02:09.964Z,100.00
2022-10-17T02:04:37.602Z,100.00
2022-10-17T02:07:13.034Z,100.00
2022-10-17T02:09:40.615Z,100.00
2022-10-17T02:12:16.277Z,100.00
2022-10-17T02:14:55.281Z,100.00
2022-10-17T02:17:45.113Z,100.00
2022-10-17T02:20:22.774Z,100.00
2022-10-17T02:23:07.575Z,100.00
2022-10-17T02:25:41.562Z,100.00
2022-10-17T02:28:16.991Z,100.00
2022-10-17T02:30:51.873Z,100.00
2022-10-17T02:33:25.352Z,100.00
2022-10-17T02:36:03.160Z,100.00
2022-10-17T02:38:31.659Z,100.00
2022-10-17T02:40:59.124Z,100.00
2022-10-17T02:43:26.027Z,100.00
2022-10-17T02:45:52.874Z,100.00
2022-10-17T02:48:30.916Z,100.00
2022-10-17T02:51:09.738Z,100.00
2022-10-17T02:53:48.996Z,100.00
2022-10-17T02:56:21.631Z,100.00
2022-10-17T02:58:52.526Z,100.00
2022-10-17T03:01:19.804Z,100.00
2022-10-17T03:03:46.739Z,100.00
2022-10-17T03:06:13.523Z,100.00
2022-10-17T03:08:40.133Z,100.00
2022-10-17T03:11:07.026Z,100.00
2022-10-17T03:13:36.239Z,100.00
2022-10-17T03:16:06.337Z,100.00
2022-10-17T03:18:33.057Z,100.00
2022-10-17T03:21:01.196Z,100.00
2022-10-17T03:23:28.226Z,100.00
2022-10-17T03:25:55.309Z,100.00
2022-10-17T03:28:22.193Z,100.00
2022-10-17T03:30:48.958Z,100.00
2022-10-17T03:33:15.889Z,100.00
2022-10-17T03:35:42.727Z,100.00
2022-10-17T03:38:09.824Z,100.00
2022-10-17T03:40:36.868Z,100.00
2022-10-17T03:43:03.970Z,100.00
2022-10-17T03:45:30.656Z,100.00
2022-10-17T03:47:59.049Z,100.00
2022-10-17T03:50:26.047Z,100.00
2022-10-17T03:52:52.930Z,100.00
2022-10-17T03:55:19.524Z,100.00
2022-10-17T03:57:46.168Z,100.00
2022-10-17T04:00:14.966Z,100.00
2022-10-17T04:02:41.684Z,100.00
2022-10-17T04:05:12.596Z,100.00
2022-10-17T04:07:39.252Z,100.00
2022-10-17T04:10:07.148Z,100.00
2022-10-17T04:12:33.794Z,100.00
2022-10-17T04:15:00.478Z,100.00
2022-10-17T04:17:31.545Z,100.00
2022-10-17T04:20:01.489Z,100.00
2022-10-17T04:22:28.480Z,100.00
2022-10-17T04:24:55.275Z,100.00
2022-10-17T04:27:31.019Z,100.00
2022-10-17T04:29:58.113Z,100.00
2022-10-17T04:32:25.949Z,100.00
2022-10-17T04:35:15.465Z,100.00
2022-10-17T04:37:47.673Z,100.00
2022-10-17T04:40:17.954Z,100.00
2022-10-17T04:42:45.053Z,100.00
2022-10-17T04:45:14.825Z,100.00
2022-10-17T04:47:42.144Z,100.00
2022-10-17T04:50:09.238Z,100.00
2022-10-17T04:52:39.060Z,100.00
2022-10-17T04:55:07.932Z,100.00
2022-10-17T04:57:35.929Z,100.00
2022-10-17T05:00:15.535Z,100.00
2022-10-17T05:03:01.278Z,100.00
2022-10-17T05:05:29.210Z,100.00
2022-10-17T05:07:56.591Z,100.00
2022-10-17T05:10:26.428Z,100.00
2022-10-17T05:12:54.156Z,100.00
2022-10-17T05:15:23.565Z,100.00
2022-10-17T05:17:55.396Z,100.00
2022-10-17T05:20:22.814Z,100.00
2022-10-17T05:22:49.714Z,100.00
2022-10-17T05:25:17.811Z,100.00
2022-10-17T05:27:44.459Z,100.00
2022-10-17T05:30:11.479Z,100.00
2022-10-17T05:32:39.574Z,100.00
2022-10-17T05:35:07.604Z,100.00
2022-10-17T05:37:35.737Z,100.00
2022-10-17T05:40:03.726Z,100.00
2022-10-17T05:42:30.947Z,100.00
2022-10-17T05:44:58.465Z,100.00
2022-10-17T05:47:26.098Z,100.00
2022-10-17T05:49:52.794Z,100.00
2022-10-17T05:52:26.060Z,100.00
2022-10-17T05:55:10.251Z,100.00
2022-10-17T05:57:36.949Z,100.00
2022-10-17T06:00:07.183Z,100.00
2022-10-17T06:02:46.074Z,100.00
2022-10-17T06:05:15.109Z,100.00
2022-10-17T06:07:41.717Z,100.00
2022-10-17T06:10:09.209Z,100.00
2022-10-17T06:12:36.069Z,100.00
2022-10-17T06:15:02.810Z,100.00
2022-10-17T06:17:30.342Z,100.00
2022-10-17T06:19:57.818Z,100.00
2022-10-17T06:22:24.692Z,100.00
2022-10-17T06:24:53.080Z,100.00
2022-10-17T06:27:20.767Z,100.00
2022-10-17T06:29:47.938Z,100.00
2022-10-17T06:32:15.290Z,100.00
2022-10-17T06:34:45.355Z,100.00
2022-10-17T06:37:12.023Z,100.00
2022-10-17T06:39:40.383Z,100.00
2022-10-17T06:42:11.952Z,100.00
2022-10-17T06:44:55.174Z,100.00
2022-10-17T06:47:21.815Z,100.00
2022-10-17T06:49:49.889Z,100.00
2022-10-17T06:52:31.468Z,100.00
2022-10-17T06:55:21.478Z,100.00
2022-10-17T06:58:12.779Z,100.00
2022-10-17T07:01:05.088Z,100.00
2022-10-17T07:03:32.387Z,100.00
2022-10-17T07:06:00.521Z,100.00
2022-10-17T07:08:27.761Z,100.00
2022-10-17T07:10:54.951Z,100.00
2022-10-17T07:13:22.039Z,100.00
2022-10-17T07:15:48.753Z,100.00
2022-10-17T07:18:16.697Z,100.00
2022-10-17T07:20:43.980Z,100.00
2022-10-17T07:23:11.051Z,100.00
2022-10-17T07:25:40.143Z,100.00
2022-10-17T07:28:08.799Z,100.00
2022-10-17T07:30:35.628Z,100.00
2022-10-17T07:33:07.651Z,100.00
2022-10-17T07:35:34.661Z,100.00
2022-10-17T07:38:01.651Z,100.00
2022-10-17T07:40:28.418Z,100.00
2022-10-17T07:42:56.397Z,100.00
2022-10-17T07:45:28.004Z,100.00
2022-10-17T07:47:58.416Z,100.00
2022-10-17T07:50:25.551Z,100.00
2022-10-17T07:52:52.163Z,100.00
2022-10-17T07:55:18.870Z,100.00
2022-10-17T07:57:45.616Z,100.00
2022-10-17T08:00:12.762Z,100.00
2022-10-17T08:02:39.605Z,100.00
2022-10-17T08:05:06.706Z,100.00
2022-10-17T08:07:33.370Z,100.00
2022-10-17T08:10:00.066Z,100.00
2022-10-17T08:12:26.944Z,100.00
2022-10-17T08:14:53.709Z,100.00
2022-10-17T08:17:20.293Z,100.00
2022-10-17T08:19:46.933Z,100.00
2022-10-17T08:22:13.498Z,100.00
2022-10-17T08:24:40.112Z,100.00
2022-10-17T08:27:11.500Z,100.00
2022-10-17T08:29:39.506Z,100.00
2022-10-17T08:32:09.649Z,100.00
2022-10-17T08:34:36.529Z,100.00
2022-10-17T08:37:03.243Z,100.00
2022-10-17T08:39:29.823Z,100.00
2022-10-17T08:42:05.731Z,100.00
2022-10-17T08:45:18.799Z,100.00
2022-10-17T08:47:48.700Z,100.00
2022-10-17T08:50:29.466Z,100.00
2022-10-17T08:53:03.056Z,100.00
2022-10-17T08:55:34.580Z,100.00
2022-10-17T08:58:01.755Z,100.00
2022-10-17T09:00:31.241Z,100.00
2022-10-17T09:02:57.855Z,100.00
2022-10-17T09:05:42.161Z,100.00
2022-10-17T09:08:14.766Z,100.00
2022-10-17T09:10:57.933Z,100.00
2022-10-17T09:16:11.465Z,100.00
2022-10-17T09:18:57.815Z,100.00
2022-10-17T09:21:36.531Z,100.00
2022-10-17T09:24:15.393Z,100.00
2022-10-17T09:26:45.740Z,100.00
2022-10-17T09:29:40.212Z,100.00
2022-10-17T09:32:18.272Z,100.00
2022-10-17T09:34:44.951Z,100.00
2022-10-17T09:37:15.310Z,100.00
2022-10-17T09:39:43.525Z,100.00
2022-10-17T09:42:14.436Z,100.00
2022-10-17T09:45:04.698Z,100.00
2022-10-17T09:47:43.449Z,100.00
2022-10-17T09:50:22.821Z,100.00
2022-10-17T09:52:50.760Z,100.00
2022-10-17T09:55:21.090Z,100.00
2022-10-17T09:57:56.776Z,100.00
2022-10-17T10:00:29.927Z,100.00
2022-10-17T10:03:22.903Z,100.00
2022-10-17T10:06:11.559Z,100.00
2022-10-17T10:08:51.321Z,100.00
2022-10-17T10:11:19.885Z,100.00
2022-10-17T10:13:50.073Z,100.00
2022-10-17T10:16:16.760Z,100.00
2022-10-17T10:18:45.487Z,100.00
2022-10-17T10:21:17.211Z,100.00
2022-10-17T10:23:45.836Z,100.00
2022-10-17T10:26:22.231Z,100.00
2022-10-17T10:29:05.032Z,100.00
2022-10-17T10:31:35.729Z,100.00
2022-10-17T10:34:25.215Z,100.00
2022-10-17T10:36:51.746Z,100.00
2022-10-17T10:39:46.017Z,100.00
2022-10-17T10:42:39.435Z,100.00
2022-10-17T10:45:29.454Z,100.00
2022-10-17T10:48:20.836Z,100.00
2022-10-17T10:50:56.008Z,100.00
2022-10-17T10:53:47.366Z,100.00
2022-10-17T10:56:21.333Z,100.00
2022-10-17T10:58:47.885Z,100.00
2022-10-17T11:01:37.409Z,100.00
2022-10-17T11:04:13.118Z,100.00
2022-10-17T11:06:43.167Z,100.00
2022-10-17T11:09:45.078Z,100.00
2022-10-17T11:12:25.617Z,100.00
2022-10-17T11:15:03.230Z,100.00
2022-10-17T11:17:45.800Z,100.00
2022-10-17T11:20:20.898Z,100.00
2022-10-17T11:22:52.235Z,100.00
2022-10-17T11:25:40.421Z,100.00
2022-10-17T11:28:16.764Z,100.00
2022-10-17T11:30:52.424Z,100.00
2022-10-17T11:33:41.922Z,100.00
2022-10-17T11:36:10.325Z,100.00
2022-10-17T11:38:42.937Z,100.00
2022-10-17T11:41:15.525Z,100.00
2022-10-17T11:44:12.068Z,100.00
2022-10-17T11:46:41.686Z,100.00
2022-10-17T11:49:21.027Z,100.00
2022-10-17T11:52:37.344Z,100.00
2022-10-17T11:55:16.300Z,100.00
2022-10-17T11:58:14.029Z,100.00
2022-10-17T12:00:50.068Z,100.00
2022-10-17T12:03:22.924Z,100.00
2022-10-17T12:05:52.591Z,100.00
2022-10-17T12:08:44.127Z,100.00
2022-10-17T12:11:34.743Z,100.00
2022-10-17T12:14:05.758Z,100.00
2022-10-17T12:16:38.242Z,94.07
2022-10-17T12:19:10.924Z,89.34
2022-10-17T12:21:57.332Z,89.33
2022-10-17T12:24:44.048Z,88.25
2022-10-17T12:27:46.140Z,86.88
2022-10-17T12:30:13.437Z,87.03
2022-10-17T12:33:06.753Z,84.44
2022-10-17T12:35:36.734Z,85.30
2022-10-17T12:38:20.099Z,85.32
2022-10-17T12:40:49.959Z,83.11
2022-10-17T12:43:16.556Z,83.49
2022-10-17T12:45:49.267Z,81.54
2022-10-17T12:48:34.059Z,83.25
2022-10-17T12:51:35.793Z,81.03
2022-10-17T12:54:14.893Z,83.14
2022-10-17T12:56:47.303Z,82.69
2022-10-17T12:59:24.828Z,83.00
2022-10-17T13:02:03.443Z,85.13
2022-10-17T13:04:31.839Z,84.11
2022-10-17T13:07:01.033Z,81.88
2022-10-17T13:09:31.195Z,83.12
2022-10-17T13:12:00.459Z,83.75
2022-10-17T13:14:28.436Z,83.67
2022-10-17T13:16:58.395Z,83.71
2022-10-17T13:19:30.007Z,83.71
2022-10-17T13:22:06.829Z,84.73
2022-10-17T13:24:39.371Z,85.58
2022-10-17T13:27:24.360Z,85.07
2022-10-17T13:29:50.991Z,85.31
2022-10-17T13:32:17.669Z,83.02
2022-10-17T13:34:44.220Z,80.54
2022-10-17T13:37:15.407Z,80.01
2022-10-17T13:39:54.854Z,81.84
2022-10-17T13:42:30.978Z,78.74
2022-10-17T13:44:59.161Z,77.30
2022-10-17T13:47:28.445Z,76.26
2022-10-17T13:49:56.504Z,74.77
2022-10-17T13:52:29.950Z,72.27
2022-10-17T13:55:08.489Z,72.41
2022-10-17T13:57:35.245Z,73.25
2022-10-17T14:00:10.041Z,73.70
2022-10-17T14:02:41.861Z,74.79
2022-10-17T14:05:17.174Z,73.81
2022-10-17T14:08:15.233Z,74.33
2022-10-17T14:10:44.735Z,75.79
2022-10-17T14:13:20.466Z,75.45
2022-10-17T14:15:47.293Z,74.13
2022-10-17T14:18:20.967Z,73.62
2022-10-17T14:23:43.695Z,74.81
2022-10-17T14:26:12.789Z,75.12
2022-10-17T14:28:40.795Z,75.31
2022-10-17T14:31:22.148Z,74.52
2022-10-17T14:33:51.405Z,72.73
2022-10-17T14:36:20.255Z,74.08
2022-10-17T14:38:50.096Z,73.16
2022-10-17T14:41:44.860Z,74.06
2022-10-17T14:44:21.833Z,74.11
2022-10-17T14:46:53.225Z,73.76
2022-10-17T14:49:40.752Z,76.00
2022-10-17T14:52:29.224Z,77.13
2022-10-17T14:54:57.283Z,76.44
2022-10-17T14:57:44.238Z,77.42
2022-10-17T15:00:16.327Z,78.22
2022-10-17T15:02:43.973Z,78.67
2022-10-17T15:05:13.177Z,81.20
2022-10-17T15:07:41.505Z,84.74
2022-10-17T15:10:23.671Z,91.38
2022-10-17T15:12:58.834Z,97.20
2022-10-17T15:15:28.606Z,100.00
2022-10-17T15:17:55.375Z,100.00
2022-10-17T15:20:26.187Z,100.00
2022-10-17T15:22:54.719Z,100.00
2022-10-17T15:25:21.737Z,100.00
2022-10-17T15:27:48.438Z,100.00
2022-10-17T15:30:23.418Z,100.00
2022-10-17T15:32:50.863Z,100.00
2022-10-17T15:35:17.667Z,100.00
2022-10-17T15:37:46.616Z,100.00
2022-10-17T15:40:15.935Z,100.00
2022-10-17T15:42:42.914Z,100.00
2022-10-17T15:45:15.784Z,100.00
2022-10-17T15:47:46.543Z,100.00
2022-10-17T15:50:17.396Z,100.00
2022-10-17T15:52:44.326Z,100.00
2022-10-17T15:55:11.173Z,100.00
2022-10-17T15:57:42.640Z,100.00
2022-10-17T16:00:21.589Z,100.00
2022-10-17T16:02:49.478Z,100.00
2022-10-17T16:05:26.033Z,100.00
2022-10-17T16:07:53.630Z,100.00
2022-10-17T16:10:21.623Z,100.00
2022-10-17T16:12:49.986Z,100.00
2022-10-17T16:15:22.991Z,100.00
2022-10-17T16:17:50.688Z,100.00
2022-10-17T16:20:17.976Z,100.00
2022-10-17T16:22:45.130Z,100.00
2022-10-17T16:25:19.974Z,100.00
2022-10-17T16:27:48.133Z,100.00
2022-10-17T16:30:15.744Z,100.00
2022-10-17T16:32:42.465Z,100.00
2022-10-17T16:35:11.753Z,100.00
2022-10-17T16:37:38.581Z,100.00
2022-10-17T16:40:05.789Z,100.00
2022-10-17T16:42:32.813Z,100.00
2022-10-17T16:44:59.878Z,100.00
2022-10-17T16:47:26.664Z,100.00
2022-10-17T16:49:53.417Z,100.00
2022-10-17T16:52:20.109Z,100.00
2022-10-17T16:54:46.852Z,100.00
2022-10-17T16:57:13.452Z,100.00
2022-10-17T16:59:40.112Z,100.00
2022-10-17T17:02:07.160Z,100.00
2022-10-17T17:04:33.760Z,100.00
2022-10-17T17:07:00.393Z,100.00
2022-10-17T17:09:27.049Z,100.00
2022-10-17T17:11:53.704Z,100.00
2022-10-17T17:14:20.319Z,100.00
2022-10-17T17:16:49.945Z,100.00
2022-10-17T17:19:20.431Z,100.00
2022-10-17T17:21:53.167Z,100.00
2022-10-17T17:24:21.540Z,100.00
2022-10-17T17:26:53.343Z,100.00
2022-10-17T17:29:20.562Z,100.00
2022-10-17T17:31:47.364Z,100.00
2022-10-17T17:34:17.971Z,100.00
2022-10-17T17:36:45.358Z,100.00
2022-10-17T17:39:14.255Z,100.00
2022-10-17T17:41:41.516Z,100.00
2022-10-17T17:44:12.562Z,100.00
2022-10-17T17:46:43.660Z,100.00
2022-10-17T17:49:11.634Z,100.00
2022-10-17T17:51:38.774Z,100.00
2022-10-17T17:54:05.423Z,100.00
2022-10-17T17:56:32.268Z,100.00
2022-10-17T17:59:01.124Z,100.00
2022-10-17T18:01:30.974Z,100.00
2022-10-17T18:03:59.035Z,100.00
2022-10-17T18:06:26.516Z,100.00
2022-10-17T18:08:57.859Z,100.00
2022-10-17T18:11:25.805Z,100.00
2022-10-17T18:14:01.104Z,100.00
2022-10-17T18:16:29.168Z,100.00
2022-10-17T18:18:55.953Z,100.00
2022-10-17T18:21:23.413Z,100.00
2022-10-17T18:23:51.848Z,100.00
2022-10-17T18:26:19.191Z,100.00
2022-10-17T18:28:46.366Z,100.00
2022-10-17T18:31:15.578Z,100.00
2022-10-17T18:33:44.560Z,100.00
2022-10-17T18:36:13.527Z,100.00
2022-10-17T18:38:40.401Z,100.00
2022-10-17T18:41:10.252Z,100.00
2022-10-17T18:43:38.804Z,100.00
2022-10-17T18:46:12.268Z,100.00
2022-10-17T18:48:44.721Z,100.00
2022-10-17T18:51:12.106Z,100.00
2022-10-17T18:53:40.930Z,100.00
2022-10-17T18:56:08.129Z,100.00
2022-10-17T18:58:34.853Z,100.00
2022-10-17T19:01:03.671Z,100.00
2022-10-17T19:03:30.959Z,100.00
2022-10-17T19:06:01.292Z,100.00
2022-10-17T19:08:28.304Z,100.00
2022-10-17T19:10:55.005Z,100.00
2022-10-17T19:13:21.910Z,100.00
2022-10-17T19:15:48.563Z,100.00
2022-10-17T19:18:15.166Z,100.00
2022-10-17T19:20:41.823Z,100.00
2022-10-17T19:23:08.486Z,100.00
2022-10-17T19:25:38.005Z,100.00
2022-10-17T19:28:04.843Z,100.00
2022-10-17T19:30:31.447Z,100.00
2022-10-17T19:32:58.080Z,100.00
2022-10-17T19:35:25.141Z,100.00
2022-10-17T19:37:52.162Z,100.00
2022-10-17T19:40:18.835Z,100.00
2022-10-17T19:42:45.490Z,100.00
2022-10-17T19:45:12.158Z,100.00
2022-10-17T19:47:39.784Z,100.00
2022-10-17T19:50:07.017Z,100.00
2022-10-17T19:52:33.786Z,100.00
2022-10-17T19:55:00.592Z,100.00
2022-10-17T19:57:27.327Z,100.00
2022-10-17T19:59:57.460Z,100.00
2022-10-17T20:02:24.155Z,100.00
2022-10-17T20:05:06.310Z,100.00
2022-10-17T20:07:37.358Z,100.00
2022-10-17T20:10:04.244Z,100.00
2022-10-17T20:12:31.066Z,100.00
2022-10-17T20:14:58.049Z,100.00
2022-10-17T20:17:24.875Z,100.00
2022-10-17T20:19:51.797Z,100.00
2022-10-17T20:22:18.386Z,100.00
2022-10-17T20:24:45.236Z,100.00
2022-10-17T20:27:11.842Z,100.00
2022-10-17T20:29:38.651Z,100.00
2022-10-17T20:32:05.440Z,100.00
2022-10-17T20:34:35.529Z,100.00
2022-10-17T20:37:02.387Z,100.00
2022-10-17T20:39:29.695Z,100.00
2022-10-17T20:41:56.580Z,100.00
2022-10-17T20:44:23.238Z,100.00
2022-10-17T20:47:01.300Z,100.00
2022-10-17T20:49:31.763Z,100.00
2022-10-17T20:51:59.380Z,100.00
2022-10-17T20:54:27.803Z,100.00
2022-10-17T20:56:55.435Z,100.00
2022-10-17T20:59:21.992Z,100.00
2022-10-17T21:01:48.729Z,100.00
2022-10-17T21:04:44.169Z,100.00
2022-10-17T21:07:02.235Z,100.00
2022-10-17T21:09:28.969Z,100.00
2022-10-17T21:11:56.832Z,100.00
2022-10-17T21:14:25.052Z,100.00
2022-10-17T21:16:52.346Z,100.00
2022-10-17T21:19:19.472Z,100.00
2022-10-17T21:21:46.780Z,100.00
2022-10-17T21:24:17.333Z,100.00
2022-10-17T21:26:45.691Z,100.00
2022-10-17T21:29:13.311Z,100.00
2022-10-17T21:31:41.831Z,100.00
2022-10-17T21:34:15.268Z,100.00
2022-10-17T21:36:42.114Z,100.00
2022-10-17T21:39:11.395Z,100.00
2022-10-17T21:41:38.287Z,100.00
2022-10-17T21:44:11.605Z,100.00
2022-10-17T21:46:38.449Z,100.00
2022-10-17T21:49:05.082Z,100.00
2022-10-17T21:51:31.776Z,100.00
2022-10-17T21:53:59.284Z,100.00
2022-10-17T21:56:28.639Z,100.00
2022-10-17T21:58:56.565Z,100.00
2022-10-17T22:01:27.698Z,100.00
2022-10-17T22:03:56.948Z,100.00
2022-10-17T22:06:39.287Z,100.00
2022-10-17T22:09:11.915Z,100.00
2022-10-17T22:11:38.812Z,100.00
2022-10-17T22:14:10.190Z,100.00
2022-10-17T22:16:38.394Z,100.00
2022-10-17T22:19:06.844Z,100.00
2022-10-17T22:21:35.596Z,100.00
2022-10-17T22:24:07.708Z,100.00
2022-10-17T22:26:36.707Z,100.00
2022-10-17T22:29:05.073Z,100.00
2022-10-17T22:31:31.781Z,100.00
2022-10-17T22:33:58.415Z,100.00
2022-10-17T22:36:25.266Z,100.00
2022-10-17T22:38:51.946Z,100.00
2022-10-17T22:41:18.739Z,100.00
2022-10-17T22:43:45.425Z,100.00
2022-10-17T22:46:14.192Z,100.00
2022-10-17T22:48:41.191Z,100.00
2022-10-17T22:51:08.536Z,100.00
2022-10-17T22:53:37.344Z,100.00
2022-10-17T22:56:07.823Z,100.00
2022-10-17T22:58:35.896Z,100.00
2022-10-17T23:01:03.698Z,100.00
2022-10-17T23:03:31.711Z,100.00
2022-10-17T23:05:58.810Z,100.00
2022-10-17T23:08:27.125Z,100.00
2022-10-17T23:10:54.496Z,100.00
2022-10-17T23:13:22.019Z,100.00
2022-10-17T23:15:53.612Z,100.00
2022-10-17T23:18:21.687Z,100.00
2022-10-17T23:20:48.856Z,100.00
2022-10-17T23:23:16.265Z,100.00
2022-10-17T23:25:43.023Z,100.00
2022-10-17T23:28:10.472Z,100.00
2022-10-17T23:30:39.007Z,100.00
2022-10-17T23:33:06.866Z,100.00
2022-10-17T23:35:34.504Z,100.00
2022-10-17T23:38:01.279Z,100.00
2022-10-17T23:40:28.185Z,100.00
2022-10-17T23:42:55.057Z,100.00
2022-10-17T23:45:22.067Z,100.00
2022-10-17T23:47:48.917Z,100.00
2022-10-17T23:50:16.502Z,100.00
2022-10-17T23:52:43.849Z,100.00
2022-10-17T23:55:11.066Z,100.00
2022-10-17T23:57:37.895Z,100.00
